Navigare Pactor — OXVG2 — position and weather

sailwx.info

Track history (hours):
 
Tides and Currents Weather Stations Pressure Air Temp Water Temp Dewpoint Dewpoint Depression Visibility Wind Speed Wind Dir Waves Ship Positions

Navigare Pactor

Last reported at 2018-Apr-14 22:18 UTC. Time now 2018-Apr-20 12:25 UTC.
Position N 55°48' E 016°49'.

Length 183 m; draft 11.1 m.

Type: Ship. MMSI: 219005000.

Date/timePositionNaut miles runAvg speedWind from/ knotsBaromVisibWave heightAir tempDewpointWater temp
2018-Apr-14 22:18N 55°48' E 016°49'412.3
2018-Apr-14 22:00N 55°47' E 016°43'612.3
2018-Apr-14 21:30N 55°46' E 016°32'612.4
2018-Apr-14 21:00N 55°44' E 016°21'612.4
2018-Apr-14 20:30N 55°43' E 016°10'612.4
2018-Apr-14 20:00N 55°42' E 015°60'612.5
2018-Apr-14 19:30N 55°42' E 015°49'713.5
2018-Apr-14 19:00N 55°42' E 015°37'713.8
2018-Apr-14 18:30N 55°40' E 015°25'613.0
2018-Apr-14 18:00N 55°36' E 015°15'612.3
2018-Apr-14 17:30N 55°34' E 015°06'612.5
2018-Apr-14 17:00N 55°30' E 014°57'612.4
2018-Apr-14 16:30N 55°27' E 014°48'612.3
2018-Apr-14 16:00N 55°24' E 014°38'612.1
2018-Apr-14 15:30N 55°19' E 014°32'612.1
2018-Apr-14 14:59N 55°14' E 014°25'612.4
2018-Apr-14 14:30N 55°09' E 014°19'612.6
2018-Apr-14 14:00N 55°04' E 014°12'7212.3
2018-Apr-14 08:10N 54°36' E 012°17'212.5
2018-Apr-14 08:00N 54°34' E 012°16'713.5
2018-Apr-14 07:30N 54°28' E 012°13'1512.2
2018-Apr-14 06:16N 54°25' E 011°47'612.6
2018-Apr-14 05:49N 54°27' E 011°39'412.8
2018-Apr-14 05:30N 54°29' E 011°32'613.0
2018-Apr-14 05:00N 54°32' E 011°22'713.0
2018-Apr-14 04:30N 54°34' E 011°12'612.8
2018-Apr-14 04:00N 54°35' E 011°01'713.2
2018-Apr-14 03:30N 54°39' E 010°51'611.2
2018-Apr-14 03:00N 54°44' E 010°47'612.3
2018-Apr-14 02:30N 54°50' E 010°50'612.3
2018-Apr-14 02:00N 54°56' E 010°52'611.8
2018-Apr-14 01:30N 55°00' E 010°59'612.4
2018-Apr-14 01:00N 55°06' E 010°59'611.7
2018-Apr-14 00:30N 55°12' E 011°04'11011.5
2018-Apr-13 14:58N 56°59' E 011°44'613.0
2018-Apr-13 14:30N 57°05' E 011°40'612.6
2018-Apr-13 14:00N 57°10' E 011°36'612.4
2018-Apr-13 13:30N 57°16' E 011°34'612.3
2018-Apr-13 13:00N 57°23' E 011°36'612.6
2018-Apr-13 12:30N 57°29' E 011°36'612.0
2018-Apr-13 12:00N 57°35' E 011°39'2 3.7
2018-Apr-13 11:30N 57°36' E 011°41'0 0.2
2018-Apr-13 10:59N 57°36' E 011°41'0 0.0
2018-Apr-13 10:29N 57°36' E 011°41'0 0.0
2018-Apr-13 09:59N 57°36' E 011°41'0 0.0
2018-Apr-13 09:29N 57°36' E 011°41'0 0.0
2018-Apr-13 08:59N 57°36' E 011°41'0 0.0
2018-Apr-13 08:29N 57°36' E 011°41'0 0.0
2018-Apr-13 07:59N 57°36' E 011°41'0 0.0
2018-Apr-13 07:29N 57°36' E 011°41'0 0.0
2018-Apr-13 06:59N 57°36' E 011°41'0 0.1
2018-Apr-13 06:29N 57°36' E 011°41'0 0.0
2018-Apr-13 05:59N 57°36' E 011°41'0 0.0
2018-Apr-13 05:29N 57°36' E 011°41'0 0.0
2018-Apr-13 04:59N 57°36' E 011°41'0 0.0
2018-Apr-13 04:29N 57°36' E 011°41'0 0.0
2018-Apr-13 03:59N 57°36' E 011°41'0 0.0
2018-Apr-13 03:29N 57°36' E 011°41'0 0.0
2018-Apr-13 02:56N 57°36' E 011°41'0 0.1
2018-Apr-13 02:29N 57°36' E 011°41'1 1.2
2018-Apr-13 02:00N 57°35' E 011°40'3 5.5
2018-Apr-13 01:30N 57°35' E 011°35'510.7
2018-Apr-13 01:00N 57°37' E 011°26'612.4
2018-Apr-13 00:30N 57°40' E 011°17'612.2
2018-Apr-13 00:00N 57°43' E 011°07'612.1
2018-Apr-12 23:30N 57°46' E 010°57'611.8
2018-Apr-12 23:00N 57°47' E 010°46'510.7
2018-Apr-12 22:30N 57°47' E 010°36'45710.0
2018-Apr-11 00:57N 51°44' E 002°35'612.7
2018-Apr-11 00:29N 51°40' E 002°28'612.7
2018-Apr-11 00:00N 51°35' E 002°22'713.1
2018-Apr-10 23:30N 51°30' E 002°14'713.5
2018-Apr-10 23:01N 51°25' E 002°08'713.5
2018-Apr-10 22:30N 51°18' E 002°08'611.9
2018-Apr-10 22:00N 51°13' E 002°03'713.9
2018-Apr-10 21:30N 51°10' E 001°53'713.9
2018-Apr-10 21:00N 51°06' E 001°44'714.3
2018-Apr-10 20:31N 51°01' E 001°36'714.2
2018-Apr-10 19:59N 50°55' E 001°28'3313.1
2018-Apr-10 17:29N 50°29' E 000°57'1713.1
2018-Apr-10 16:13N 50°26' E 000°31'513.4
2018-Apr-10 15:52N 50°25' E 000°24'513.2
2018-Apr-10 15:30N 50°23' E 000°17'712.7
2018-Apr-10 15:00N 50°22' E 000°07'713.0
2018-Apr-10 14:26N 50°20' W 000°04'612.8
2018-Apr-10 14:00N 50°19' W 000°13'3512.0
2018-Apr-10 11:05N 50°10' W 001°05'111.3
2018-Apr-10 11:00N 50°10' W 001°07'611.0
2018-Apr-10 10:29N 50°08' W 001°15'511.0
2018-Apr-10 10:00N 50°07' W 001°23'611.1
2018-Apr-10 09:29N 50°05' W 001°32'511.0
2018-Apr-10 09:00N 50°04' W 001°40'510.7
2018-Apr-10 08:30N 50°02' W 001°48'611.0
2018-Apr-10 08:00N 50°00' W 001°56'611.4
2018-Apr-10 07:28N 49°58' W 002°05'2912.0
2018-Apr-10 05:01N 49°50' W 002°49'  
2018-Apr-07 15:15N 39°19' W 009°57'311.4
2018-Apr-07 15:01N 39°16' W 009°57'611.7
2018-Apr-07 14:30N 39°10' W 009°57'611.8
2018-Apr-07 14:00N 39°05' W 009°57'611.6
2018-Apr-07 13:30N 38°59' W 009°57'611.8
2018-Apr-07 13:00N 38°53' W 009°57'612.1
2018-Apr-07 12:30N 38°47' W 009°58'711.7
2018-Apr-07 11:54N 38°40' W 009°57'411.5
2018-Apr-07 11:31N 38°35' W 009°56'611.0
2018-Apr-07 11:00N 38°30' W 009°54'611.2
2018-Apr-07 10:30N 38°25' W 009°52'161 3.8
2018-Apr-05 15:50N 36°00' W 008°23'6 3.1
2018-Apr-05 13:58N 35°58' W 008°16'2 3.6
2018-Apr-05 13:31N 35°58' W 008°14'3 5.1
2018-Apr-05 12:57N 35°57' W 008°10'4 8.8
2018-Apr-05 12:29N 35°57' W 008°05'1 1.6
2018-Apr-05 11:48N 35°56' W 008°04'  
Track history (hours):
 
Tides and Currents Weather Stations Pressure Air Temp Water Temp Dewpoint Dewpoint Depression Visibility Wind Speed Wind Dir Waves Ship Positions

Navigare Pactor

Last reported at 2018-Apr-14 22:18 UTC. Time now 2018-Apr-20 12:25 UTC.
Position N 55°48' E 016°49'.

Length 183 m; draft 11.1 m.

Type: Ship. MMSI: 219005000.

Date/timePositionNaut miles runAvg speedWind from/ knotsBaromVisibWave heightAir tempDewpointWater temp
2018-Apr-14 22:18N 55°48' E 016°49'412.3
2018-Apr-14 22:00N 55°47' E 016°43'612.3
2018-Apr-14 21:30N 55°46' E 016°32'612.4
2018-Apr-14 21:00N 55°44' E 016°21'612.4
2018-Apr-14 20:30N 55°43' E 016°10'612.4
2018-Apr-14 20:00N 55°42' E 015°60'612.5
2018-Apr-14 19:30N 55°42' E 015°49'713.5
2018-Apr-14 19:00N 55°42' E 015°37'713.8
2018-Apr-14 18:30N 55°40' E 015°25'613.0
2018-Apr-14 18:00N 55°36' E 015°15'612.3
2018-Apr-14 17:30N 55°34' E 015°06'612.5
2018-Apr-14 17:00N 55°30' E 014°57'612.4
2018-Apr-14 16:30N 55°27' E 014°48'612.3
2018-Apr-14 16:00N 55°24' E 014°38'612.1
2018-Apr-14 15:30N 55°19' E 014°32'612.1
2018-Apr-14 14:59N 55°14' E 014°25'612.4
2018-Apr-14 14:30N 55°09' E 014°19'612.6
2018-Apr-14 14:00N 55°04' E 014°12'7212.3
2018-Apr-14 08:10N 54°36' E 012°17'212.5
2018-Apr-14 08:00N 54°34' E 012°16'713.5
2018-Apr-14 07:30N 54°28' E 012°13'1512.2
2018-Apr-14 06:16N 54°25' E 011°47'612.6
2018-Apr-14 05:49N 54°27' E 011°39'412.8
2018-Apr-14 05:30N 54°29' E 011°32'613.0
2018-Apr-14 05:00N 54°32' E 011°22'713.0
2018-Apr-14 04:30N 54°34' E 011°12'612.8
2018-Apr-14 04:00N 54°35' E 011°01'713.2
2018-Apr-14 03:30N 54°39' E 010°51'611.2
2018-Apr-14 03:00N 54°44' E 010°47'612.3
2018-Apr-14 02:30N 54°50' E 010°50'612.3
2018-Apr-14 02:00N 54°56' E 010°52'611.8
2018-Apr-14 01:30N 55°00' E 010°59'612.4
2018-Apr-14 01:00N 55°06' E 010°59'611.7
2018-Apr-14 00:30N 55°12' E 011°04'11011.5
2018-Apr-13 14:58N 56°59' E 011°44'613.0
2018-Apr-13 14:30N 57°05' E 011°40'612.6
2018-Apr-13 14:00N 57°10' E 011°36'612.4
2018-Apr-13 13:30N 57°16' E 011°34'612.3
2018-Apr-13 13:00N 57°23' E 011°36'612.6
2018-Apr-13 12:30N 57°29' E 011°36'612.0
2018-Apr-13 12:00N 57°35' E 011°39'2 3.7
2018-Apr-13 11:30N 57°36' E 011°41'0 0.2
2018-Apr-13 10:59N 57°36' E 011°41'0 0.0
2018-Apr-13 10:29N 57°36' E 011°41'0 0.0
2018-Apr-13 09:59N 57°36' E 011°41'0 0.0
2018-Apr-13 09:29N 57°36' E 011°41'0 0.0
2018-Apr-13 08:59N 57°36' E 011°41'0 0.0
2018-Apr-13 08:29N 57°36' E 011°41'0 0.0
2018-Apr-13 07:59N 57°36' E 011°41'0 0.0
2018-Apr-13 07:29N 57°36' E 011°41'0 0.0
2018-Apr-13 06:59N 57°36' E 011°41'0 0.1
2018-Apr-13 06:29N 57°36' E 011°41'0 0.0
2018-Apr-13 05:59N 57°36' E 011°41'0 0.0
2018-Apr-13 05:29N 57°36' E 011°41'0 0.0
2018-Apr-13 04:59N 57°36' E 011°41'0 0.0
2018-Apr-13 04:29N 57°36' E 011°41'0 0.0
2018-Apr-13 03:59N 57°36' E 011°41'0 0.0
2018-Apr-13 03:29N 57°36' E 011°41'0 0.0
2018-Apr-13 02:56N 57°36' E 011°41'0 0.1
2018-Apr-13 02:29N 57°36' E 011°41'1 1.2
2018-Apr-13 02:00N 57°35' E 011°40'3 5.5
2018-Apr-13 01:30N 57°35' E 011°35'510.7
2018-Apr-13 01:00N 57°37' E 011°26'612.4
2018-Apr-13 00:30N 57°40' E 011°17'612.2
2018-Apr-13 00:00N 57°43' E 011°07'612.1
2018-Apr-12 23:30N 57°46' E 010°57'611.8
2018-Apr-12 23:00N 57°47' E 010°46'510.7
2018-Apr-12 22:30N 57°47' E 010°36'45710.0
2018-Apr-11 00:57N 51°44' E 002°35'612.7
2018-Apr-11 00:29N 51°40' E 002°28'612.7
2018-Apr-11 00:00N 51°35' E 002°22'713.1
2018-Apr-10 23:30N 51°30' E 002°14'713.5
2018-Apr-10 23:01N 51°25' E 002°08'713.5
2018-Apr-10 22:30N 51°18' E 002°08'611.9
2018-Apr-10 22:00N 51°13' E 002°03'713.9
2018-Apr-10 21:30N 51°10' E 001°53'713.9
2018-Apr-10 21:00N 51°06' E 001°44'714.3
2018-Apr-10 20:31N 51°01' E 001°36'714.2
2018-Apr-10 19:59N 50°55' E 001°28'3313.1
2018-Apr-10 17:29N 50°29' E 000°57'1713.1
2018-Apr-10 16:13N 50°26' E 000°31'513.4
2018-Apr-10 15:52N 50°25' E 000°24'513.2
2018-Apr-10 15:30N 50°23' E 000°17'712.7
2018-Apr-10 15:00N 50°22' E 000°07'713.0
2018-Apr-10 14:26N 50°20' W 000°04'612.8
2018-Apr-10 14:00N 50°19' W 000°13'3512.0
2018-Apr-10 11:05N 50°10' W 001°05'111.3
2018-Apr-10 11:00N 50°10' W 001°07'611.0
2018-Apr-10 10:29N 50°08' W 001°15'511.0
2018-Apr-10 10:00N 50°07' W 001°23'611.1
2018-Apr-10 09:29N 50°05' W 001°32'511.0
2018-Apr-10 09:00N 50°04' W 001°40'510.7
2018-Apr-10 08:30N 50°02' W 001°48'611.0
2018-Apr-10 08:00N 50°00' W 001°56'611.4
2018-Apr-10 07:28N 49°58' W 002°05'2912.0
2018-Apr-10 05:01N 49°50' W 002°49'  
2018-Apr-07 15:15N 39°19' W 009°57'311.4
2018-Apr-07 15:01N 39°16' W 009°57'611.7
2018-Apr-07 14:30N 39°10' W 009°57'611.8
2018-Apr-07 14:00N 39°05' W 009°57'611.6
2018-Apr-07 13:30N 38°59' W 009°57'611.8
2018-Apr-07 13:00N 38°53' W 009°57'612.1
2018-Apr-07 12:30N 38°47' W 009°58'711.7
2018-Apr-07 11:54N 38°40' W 009°57'411.5
2018-Apr-07 11:31N 38°35' W 009°56'611.0
2018-Apr-07 11:00N 38°30' W 009°54'611.2
2018-Apr-07 10:30N 38°25' W 009°52'161 3.8
2018-Apr-05 15:50N 36°00' W 008°23'6 3.1
2018-Apr-05 13:58N 35°58' W 008°16'2 3.6
2018-Apr-05 13:31N 35°58' W 008°14'3 5.1
2018-Apr-05 12:57N 35°57' W 008°10'4 8.8
2018-Apr-05 12:29N 35°57' W 008°05'1 1.6
2018-Apr-05 11:48N 35°56' W 008°04'  

Dump ship's entire track history